Time;durP1;ratioP1;P1;durP2;ratioP2;P2;SDS_P1;SDS_P2;PMS_P1;PMS_P2;Temp;Humidity;BMP_temperature;BMP_pressure;BME280_temperature;BME280_humidity;BME280_pressure;Samples;Min_cycle;Max_cycle;Signal;HPM_P1;HPM_P2
2023/08/20 00:02:33;;;;;;;0.70;0.70;;;22.30;63.90;;;;;;6243567;28;20084;-69
2023/08/20 00:05:34;;;;;;;1.25;0.80;;;22.30;64.00;;;;;;6266931;28;20172;-69
2023/08/20 00:08:35;;;;;;;0.82;0.82;;;22.30;63.90;;;;;;6258286;28;20495;-69
2023/08/20 00:11:36;;;;;;;0.60;0.60;;;22.30;63.90;;;;;;6242750;28;20327;-69
2023/08/20 00:15:05;;;;;;;1.00;0.90;;;22.30;63.90;;;;;;6259024;28;20036;-69
2023/08/20 00:18:06;;;;;;;1.00;0.80;;;22.30;63.90;;;;;;6264078;28;20077;-70
2023/08/20 00:21:07;;;;;;;0.70;0.70;;;22.30;63.90;;;;;;6247502;28;20410;-70
2023/08/20 00:24:08;;;;;;;0.70;0.70;;;22.30;64.00;;;;;;6258878;28;20044;-71
2023/08/20 00:27:09;;;;;;;0.70;0.70;;;22.40;64.00;;;;;;6272500;28;20036;-70
2023/08/20 00:30:11;;;;;;;0.77;0.73;;;22.30;64.00;;;;;;6253566;28;20029;-69
2023/08/20 00:33:11;;;;;;;0.70;0.70;;;22.30;64.00;;;;;;6249660;28;20026;-70
2023/08/20 00:36:12;;;;;;;0.80;0.80;;;22.30;64.00;;;;;;6272232;28;20487;-69
2023/08/20 00:39:12;;;;;;;0.80;0.80;;;22.30;64.00;;;;;;6262090;28;20033;-70
2023/08/20 00:42:16;;;;;;;0.70;0.70;;;22.40;64.10;;;;;;6247448;28;20138;-70
2023/08/20 00:45:16;;;;;;;1.02;0.85;;;22.40;64.10;;;;;;6265143;28;20429;-70
2023/08/20 00:48:17;;;;;;;0.90;0.88;;;22.30;64.00;;;;;;6271626;28;20040;-70
2023/08/20 00:51:18;;;;;;;0.77;0.70;;;22.30;64.00;;;;;;6246715;28;20025;-69
2023/08/20 00:54:20;;;;;;;0.98;0.80;;;22.30;64.00;;;;;;6255849;28;20028;-69
2023/08/20 00:57:22;;;;;;;1.10;1.00;;;22.30;64.00;;;;;;6271928;28;20463;-68
2023/08/20 01:00:24;;;;;;;0.70;0.70;;;22.30;64.00;;;;;;6254653;28;20076;-69
2023/08/20 01:03:24;;;;;;;0.75;0.75;;;22.30;64.00;;;;;;6266366;28;20025;-70
2023/08/20 01:06:50;;;;;;;0.90;0.75;;;22.30;64.00;;;;;;6246614;28;20095;-69
2023/08/20 01:10:04;;;;;;;0.73;0.73;;;22.30;64.00;;;;;;6257954;28;20449;-69
2023/08/20 01:13:05;;;;;;;0.73;0.73;;;22.30;64.00;;;;;;6271594;28;20040;-68
2023/08/20 01:16:06;;;;;;;0.82;0.70;;;22.30;64.00;;;;;;6250079;28;20028;-69
2023/08/20 01:19:12;;;;;;;1.00;0.80;;;22.40;64.10;;;;;;6248123;28;20037;-69
2023/08/20 01:22:52;;;;;;;1.00;0.80;;;22.40;64.10;;;;;;6268836;28;20029;-69
2023/08/20 01:26:26;;;;;;;0.95;0.88;;;22.30;64.00;;;;;;6253100;28;20022;-69
2023/08/20 01:29:27;;;;;;;0.80;0.75;;;22.40;64.10;;;;;;6251349;28;20032;-70
2023/08/20 01:32:28;;;;;;;0.80;0.80;;;22.30;64.00;;;;;;6270893;28;20029;-68
2023/08/20 01:35:29;;;;;;;1.00;0.80;;;22.30;64.00;;;;;;6257372;28;20025;-69
2023/08/20 01:38:29;;;;;;;1.00;0.90;;;22.30;64.00;;;;;;6246726;28;20500;-69
2023/08/20 01:41:30;;;;;;;1.00;0.90;;;22.30;64.00;;;;;;6259445;28;20488;-69
2023/08/20 01:44:31;;;;;;;0.70;0.70;;;22.30;64.00;;;;;;6249749;28;20040;-69
2023/08/20 01:47:35;;;;;;;1.05;0.90;;;22.30;64.00;;;;;;6269155;28;20507;-69
2023/08/20 01:50:37;;;;;;;0.70;0.70;;;22.40;64.10;;;;;;6258689;28;20439;-69
2023/08/20 01:53:37;;;;;;;0.95;0.85;;;22.30;64.00;;;;;;6245895;28;20026;-69
2023/08/20 01:56:38;;;;;;;0.70;0.70;;;22.40;64.10;;;;;;6264974;28;20387;-70
2023/08/20 01:59:38;;;;;;;0.63;0.63;;;22.30;64.00;;;;;;6266116;28;20037;-69
2023/08/20 02:02:39;;;;;;;0.80;0.80;;;22.40;64.10;;;;;;6245438;28;20068;-69
2023/08/20 02:05:41;;;;;;;1.17;0.80;;;22.30;64.00;;;;;;6255754;28;20375;-69
2023/08/20 02:08:42;;;;;;;1.00;0.90;;;22.40;64.10;;;;;;6270254;28;20101;-69
2023/08/20 02:11:43;;;;;;;0.90;0.80;;;22.30;64.00;;;;;;6252508;28;20082;-69
2023/08/20 02:14:45;;;;;;;0.70;0.70;;;22.30;64.00;;;;;;6246516;28;20384;-69
2023/08/20 02:17:46;;;;;;;0.88;0.80;;;22.30;64.00;;;;;;6270091;28;20036;-70
2023/08/20 02:20:48;;;;;;;0.98;0.85;;;22.30;64.00;;;;;;6260781;28;20103;-69
2023/08/20 02:23:48;;;;;;;1.08;0.98;;;22.40;64.10;;;;;;6245534;28;20056;-69
2023/08/20 02:26:49;;;;;;;0.80;0.80;;;22.30;64.00;;;;;;6261514;28;20089;-69
2023/08/20 02:29:50;;;;;;;0.88;0.77;;;22.40;64.10;;;;;;6269903;28;20025;-69
2023/08/20 02:32:50;;;;;;;0.70;0.70;;;22.40;64.10;;;;;;6244996;28;20515;-69
2023/08/20 02:35:51;;;;;;;0.70;0.70;;;22.40;64.10;;;;;;6251852;28;20021;-69
2023/08/20 02:38:51;;;;;;;0.70;0.70;;;22.30;64.00;;;;;;6269347;28;20071;-70
2023/08/20 02:41:52;;;;;;;0.68;0.68;;;22.40;64.10;;;;;;6253251;28;20029;-69
2023/08/20 02:44:52;;;;;;;0.82;0.80;;;22.40;64.10;;;;;;6244548;28;20033;-70
2023/08/20 02:47:53;;;;;;;0.70;0.70;;;22.40;64.10;;;;;;6267586;28;20037;-69
2023/08/20 02:50:54;;;;;;;0.90;0.90;;;22.30;64.00;;;;;;6262599;28;20017;-69
2023/08/20 02:53:55;;;;;;;0.70;0.70;;;22.30;64.10;;;;;;6244777;28;20037;-70
2023/08/20 02:56:55;;;;;;;0.65;0.63;;;22.40;64.10;;;;;;6255408;28;20053;-69
2023/08/20 02:59:56;;;;;;;0.73;0.70;;;22.30;64.00;;;;;;6268849;28;20033;-69
2023/08/20 03:02:57;;;;;;;0.70;0.70;;;22.40;64.10;;;;;;6247269;28;20025;-70
2023/08/20 03:05:58;;;;;;;0.68;0.68;;;22.30;64.10;;;;;;6248537;28;20036;-69
2023/08/20 03:08:59;;;;;;;0.70;0.70;;;22.40;64.10;;;;;;6268369;28;20068;-69
2023/08/20 03:11:59;;;;;;;0.98;0.70;;;22.30;64.00;;;;;;6256103;28;20025;-69
2023/08/20 03:15:00;;;;;;;0.70;0.70;;;22.30;64.00;;;;;;6243886;28;20449;-68
2023/08/20 03:18:00;;;;;;;0.70;0.70;;;22.40;64.20;;;;;;6263337;28;20036;-69
2023/08/20 03:21:01;;;;;;;1.00;0.90;;;22.40;64.20;;;;;;6265464;28;20388;-70
2023/08/20 03:24:02;;;;;;;0.73;0.70;;;22.40;65.00;;;;;;6243529;28;20037;-69
2023/08/20 03:27:03;;;;;;;0.70;0.70;;;22.40;64.10;;;;;;6253692;28;20017;-70
2023/08/20 03:30:04;;;;;;;1.15;0.82;;;22.40;64.10;;;;;;6268679;28;20496;-69
2023/08/20 03:33:05;;;;;;;0.77;0.77;;;22.40;64.10;;;;;;6249592;28;20419;-70
2023/08/20 03:36:05;;;;;;;0.73;0.70;;;22.30;64.00;;;;;;6244476;28;20030;-69
2023/08/20 03:39:06;;;;;;;0.60;0.60;;;22.30;64.10;;;;;;6267917;28;20724;-69
2023/08/20 03:42:07;;;;;;;0.68;0.68;;;22.30;64.00;;;;;;6264525;28;20588;-69
2023/08/20 03:45:08;;;;;;;1.00;0.90;;;22.30;64.00;;;;;;6267773;28;20112;-70
2023/08/20 03:48:08;;;;;;;0.80;0.77;;;22.30;64.00;;;;;;6251132;28;20040;-69
2023/08/20 03:51:09;;;;;;;0.82;0.80;;;22.40;64.20;;;;;;6242982;28;20022;-69
2023/08/20 03:54:09;;;;;;;0.80;0.80;;;22.40;64.10;;;;;;6266330;28;20114;-69
2023/08/20 03:57:10;;;;;;;0.80;0.80;;;22.30;64.00;;;;;;6259995;28;20021;-69
2023/08/20 04:00:43;;;;;;;0.60;0.60;;;22.40;64.20;;;;;;6243056;28;20060;-70
2023/08/20 04:03:43;;;;;;;1.02;0.93;;;22.40;64.10;;;;;;6262295;28;20167;-69
2023/08/20 04:06:44;;;;;;;0.75;0.75;;;22.40;64.20;;;;;;6265105;28;20033;-69
2023/08/20 04:09:44;;;;;;;0.60;0.60;;;22.40;64.10;;;;;;6242708;28;20400;-69
2023/08/20 04:12:45;;;;;;;0.60;0.60;;;22.40;64.20;;;;;;6252486;28;20044;-69
2023/08/20 04:15:46;;;;;;;1.83;0.65;;;22.30;64.00;;;;;;6267153;28;20025;-70
2023/08/20 04:18:46;;;;;;;0.93;0.77;;;22.40;64.10;;;;;;6249266;28;20021;-69
2023/08/20 04:21:47;;;;;;;0.80;0.80;;;22.30;64.10;;;;;;6243447;28;20531;-69
2023/08/20 04:24:47;;;;;;;0.75;0.75;;;22.40;64.20;;;;;;6267051;28;20078;-69
2023/08/20 04:27:48;;;;;;;0.95;0.80;;;22.30;64.10;;;;;;6258515;28;20021;-69
2023/08/20 04:30:53;;;;;;;0.82;0.73;;;22.30;64.10;;;;;;6242409;28;20049;-69
2023/08/20 04:33:55;;;;;;;0.88;0.73;;;22.30;64.00;;;;;;6259134;28;20466;-69
2023/08/20 04:36:55;;;;;;;0.63;0.63;;;22.40;64.20;;;;;;6267045;28;20487;-69
2023/08/20 04:39:56;;;;;;;0.60;0.60;;;22.40;64.20;;;;;;6241722;28;20033;-69
2023/08/20 04:42:56;;;;;;;0.80;0.75;;;22.40;64.20;;;;;;6249296;28;20036;-69
2023/08/20 04:45:57;;;;;;;0.90;0.80;;;22.40;64.20;;;;;;6266923;28;20329;-69
2023/08/20 04:48:58;;;;;;;0.55;0.55;;;22.40;64.20;;;;;;6251637;28;20376;-69
2023/08/20 04:51:58;;;;;;;0.75;0.70;;;22.40;64.30;;;;;;6241850;28;20049;-69
2023/08/20 04:54:59;;;;;;;0.75;0.73;;;22.40;64.20;;;;;;6264821;28;20542;-69
2023/08/20 04:58:00;;;;;;;0.82;0.82;;;22.30;64.00;;;;;;6260831;28;20030;-69
2023/08/20 05:01:00;;;;;;;0.80;0.70;;;22.40;64.20;;;;;;6239327;28;20511;-69
2023/08/20 05:04:01;;;;;;;0.60;0.60;;;22.40;64.20;;;;;;6244406;28;20103;-69
2023/08/20 05:07:03;;;;;;;0.60;0.60;;;22.30;64.10;;;;;;6271933;28;20033;-69
2023/08/20 05:10:04;;;;;;;0.73;0.73;;;22.30;64.10;;;;;;6249908;28;20060;-69
2023/08/20 05:13:05;;;;;;;0.65;0.65;;;22.40;64.20;;;;;;6251517;28;20017;-69
2023/08/20 05:16:05;;;;;;;1.38;0.70;;;22.40;65.10;;;;;;6271205;28;20028;-69
2023/08/20 05:19:06;;;;;;;0.70;0.70;;;22.40;64.20;;;;;;6258875;28;20515;-69
2023/08/20 05:22:06;;;;;;;0.60;0.60;;;22.40;64.30;;;;;;6246968;28;20080;-69
2023/08/20 05:25:07;;;;;;;0.90;0.80;;;22.40;64.20;;;;;;6266613;28;20261;-69
2023/08/20 05:28:08;;;;;;;0.70;0.70;;;22.40;64.20;;;;;;6269139;28;20120;-69
2023/08/20 05:31:10;;;;;;;0.70;0.70;;;22.30;64.10;;;;;;6246343;28;20018;-69
2023/08/20 05:34:11;;;;;;;0.60;0.60;;;22.40;64.20;;;;;;6257191;28;20032;-69
2023/08/20 05:37:12;;;;;;;1.05;0.80;;;22.40;64.20;;;;;;6270379;28;20056;-69
2023/08/20 05:40:12;;;;;;;0.70;0.70;;;22.40;64.20;;;;;;6252037;28;20041;-69
2023/08/20 05:43:13;;;;;;;0.50;0.50;;;22.30;64.10;;;;;;6247131;28;20037;-69
2023/08/20 05:46:13;;;;;;;0.63;0.63;;;22.30;64.10;;;;;;6270800;28;20211;-69
2023/08/20 05:49:18;;;;;;;1.00;0.90;;;22.30;64.10;;;;;;6261196;28;20025;-69
2023/08/20 05:52:18;;;;;;;0.70;0.65;;;22.40;64.20;;;;;;6245852;28;20522;-69
2023/08/20 05:55:19;;;;;;;0.52;0.50;;;22.40;64.20;;;;;;6263338;28;20029;-69
2023/08/20 05:58:20;;;;;;;0.60;0.60;;;22.40;64.20;;;;;;6269899;28;20024;-70
2023/08/20 06:01:20;;;;;;;0.50;0.50;;;22.30;64.10;;;;;;6246092;28;20091;-69
2023/08/20 06:04:21;;;;;;;0.68;0.68;;;22.30;64.10;;;;;;6253548;28;20463;-69
2023/08/20 06:07:22;;;;;;;0.77;0.77;;;22.40;64.20;;;;;;6270644;28;20035;-69
2023/08/20 06:10:22;;;;;;;0.60;0.60;;;22.40;64.20;;;;;;6252658;28;20118;-69
2023/08/20 06:13:23;;;;;;;0.52;0.52;;;22.40;64.20;;;;;;6245296;28;20029;-69
2023/08/20 06:16:23;;;;;;;0.80;0.80;;;22.40;64.20;;;;;;6267551;28;20431;-69
2023/08/20 06:19:24;;;;;;;0.77;0.73;;;22.40;64.30;;;;;;6263293;28;20127;-69
2023/08/20 06:22:25;;;;;;;0.57;0.57;;;22.40;64.30;;;;;;6244811;28;20021;-69
2023/08/20 06:25:25;;;;;;;0.60;0.60;;;22.30;64.10;;;;;;6259116;28;20359;-69
2023/08/20 06:28:26;;;;;;;0.70;0.70;;;22.40;64.30;;;;;;6270467;28;20075;-69
2023/08/20 06:31:26;;;;;;;0.60;0.60;;;22.40;64.20;;;;;;6247738;28;20519;-69
2023/08/20 06:34:27;;;;;;;0.70;0.70;;;22.40;64.20;;;;;;6249414;28;20025;-69
2023/08/20 06:37:28;;;;;;;0.82;0.80;;;22.30;64.10;;;;;;6269691;28;20049;-69
2023/08/20 06:40:28;;;;;;;0.70;0.70;;;22.40;64.30;;;;;;6256709;28;20112;-69
2023/08/20 06:43:29;;;;;;;0.50;0.50;;;22.40;64.30;;;;;;6244435;28;20097;-69
2023/08/20 06:46:30;;;;;;;0.70;0.70;;;22.40;64.30;;;;;;6264775;28;20395;-69
2023/08/20 06:49:30;;;;;;;0.95;0.70;;;22.30;64.20;;;;;;6266422;28;20087;-69
2023/08/20 06:52:31;;;;;;;0.80;0.80;;;22.40;64.30;;;;;;6244275;28;20041;-70
2023/08/20 06:55:31;;;;;;;0.75;0.70;;;22.40;64.30;;;;;;6255005;28;20071;-69
2023/08/20 06:58:32;;;;;;;0.47;0.47;;;22.40;64.30;;;;;;6269079;28;20480;-69
2023/08/20 07:01:32;;;;;;;0.95;0.70;;;22.40;64.30;;;;;;6250323;28;20030;-69
2023/08/20 07:04:33;;;;;;;0.63;0.63;;;22.40;64.30;;;;;;6245057;28;20034;-69
2023/08/20 07:07:34;;;;;;;0.70;0.70;;;22.40;64.30;;;;;;6269049;28;20029;-69
2023/08/20 07:10:34;;;;;;;0.60;0.60;;;22.30;64.10;;;;;;6259053;28;20404;-69
2023/08/20 07:13:35;;;;;;;0.50;0.50;;;22.30;64.10;;;;;;6243766;28;20025;-69
2023/08/20 07:16:35;;;;;;;0.70;0.70;;;22.40;64.30;;;;;;6260561;28;20032;-69
2023/08/20 07:19:37;;;;;;;0.60;0.60;;;22.40;64.30;;;;;;6268777;28;20029;-69
2023/08/20 07:22:38;;;;;;;0.77;0.70;;;22.40;64.30;;;;;;6219270;28;20057;-69
2023/08/20 07:25:39;;;;;;;0.60;0.60;;;22.40;64.30;;;;;;6234082;28;20486;-69
2023/08/20 07:28:59;;;;;;;0.70;0.70;;;22.40;64.30;;;;;;6268340;28;20360;-68
2023/08/20 07:32:03;;;;;;;0.82;0.73;;;22.40;64.30;;;;;;6250512;28;20091;-70
2023/08/20 07:35:04;;;;;;;0.80;0.80;;;22.40;64.30;;;;;;6244814;28;20114;-69
2023/08/20 07:38:04;;;;;;;0.60;0.60;;;22.40;64.30;;;;;;6268289;28;20036;-70
2023/08/20 07:41:05;;;;;;;0.80;0.80;;;22.40;64.30;;;;;;6258659;28;20034;-69
2023/08/20 07:44:05;;;;;;;0.70;0.70;;;22.40;64.30;;;;;;6242917;28;20304;-69
2023/08/20 07:47:06;;;;;;;0.50;0.50;;;22.40;64.30;;;;;;6260311;28;20025;-69
2023/08/20 07:50:07;;;;;;;0.63;0.60;;;22.40;64.30;;;;;;6267751;28;20051;-69
2023/08/20 07:53:07;;;;;;;0.80;0.80;;;22.40;64.30;;;;;;6243552;28;20033;-69
2023/08/20 07:56:08;;;;;;;0.70;0.70;;;22.40;64.30;;;;;;6249968;28;20154;-70
2023/08/20 07:59:09;;;;;;;0.63;0.60;;;22.40;64.30;;;;;;6267142;28;20064;-69
2023/08/20 08:02:09;;;;;;;0.50;0.50;;;22.40;64.30;;;;;;6252577;28;20035;-70
2023/08/20 08:05:10;;;;;;;0.70;0.70;;;22.40;64.30;;;;;;6243017;28;20034;-69
2023/08/20 08:08:11;;;;;;;0.60;0.60;;;22.40;64.30;;;;;;6265971;28;20379;-69
2023/08/20 08:11:11;;;;;;;0.50;0.50;;;22.40;64.30;;;;;;6261248;28;20049;-69
2023/08/20 08:14:12;;;;;;;0.70;0.70;;;22.40;64.30;;;;;;6242373;28;20022;-69
2023/08/20 08:17:13;;;;;;;1.40;0.55;;;22.40;64.30;;;;;;6256050;28;20026;-69
2023/08/20 08:20:13;;;;;;;0.63;0.60;;;22.40;64.30;;;;;;6267451;28;20033;-69
2023/08/20 08:23:14;;;;;;;0.70;0.70;;;22.40;64.30;;;;;;6246333;28;20062;-69
2023/08/20 08:26:14;;;;;;;0.60;0.60;;;22.30;64.20;;;;;;6246336;28;20483;-69
2023/08/20 08:29:15;;;;;;;0.50;0.50;;;22.40;64.40;;;;;;6267516;28;20025;-69
2023/08/20 08:32:16;;;;;;;0.50;0.50;;;22.40;64.30;;;;;;6255067;28;20100;-69
2023/08/20 08:35:17;;;;;;;1.33;0.65;;;22.40;64.30;;;;;;6242476;28;20021;-69
2023/08/20 08:38:17;;;;;;;0.50;0.50;;;22.40;64.30;;;;;;6262464;28;20037;-69
2023/08/20 08:41:23;;;;;;;0.50;0.50;;;22.40;64.30;;;;;;6268758;28;20179;-69
2023/08/20 08:44:24;;;;;;;0.45;0.40;;;22.40;64.30;;;;;;6272336;28;20033;-69
2023/08/20 08:47:25;;;;;;;0.65;0.60;;;22.40;64.40;;;;;;6260826;28;20068;-69
2023/08/20 08:50:26;;;;;;;0.50;0.50;;;22.30;64.20;;;;;;6247500;28;20022;-69
2023/08/20 08:53:27;;;;;;;0.60;0.60;;;22.40;64.30;;;;;;6266427;28;20043;-68
2023/08/20 08:56:27;;;;;;;0.60;0.60;;;22.40;64.30;;;;;;6269888;28;20032;-69
2023/08/20 08:59:28;;;;;;;0.50;0.50;;;22.40;64.30;;;;;;6245259;28;20041;-69
2023/08/20 09:02:29;;;;;;;0.80;0.70;;;22.40;64.30;;;;;;6256953;28;20513;-69
2023/08/20 09:05:29;;;;;;;0.40;0.40;;;22.40;64.30;;;;;;6271509;28;20029;-69
2023/08/20 09:08:31;;;;;;;0.57;0.57;;;22.40;64.40;;;;;;6254292;28;20033;-69
2023/08/20 09:11:35;;;;;;;0.68;0.60;;;22.40;64.30;;;;;;6247159;28;20155;-69
2023/08/20 09:14:36;;;;;;;0.57;0.50;;;22.40;64.30;;;;;;6271825;28;20346;-69
2023/08/20 09:17:36;;;;;;;0.80;0.80;;;22.40;64.30;;;;;;6262638;28;20029;-68
2023/08/20 09:20:37;;;;;;;0.70;0.70;;;22.40;64.30;;;;;;6247155;28;20440;-69
2023/08/20 09:23:39;;;;;;;0.68;0.68;;;22.40;64.30;;;;;;6263035;28;20020;-69
2023/08/20 09:26:39;;;;;;;0.50;0.40;;;22.30;64.20;;;;;;6271272;28;20036;-69
2023/08/20 09:29:51;;;;;;;0.50;0.50;;;22.40;64.40;;;;;;6247364;28;20395;-69
2023/08/20 09:33:08;;;;;;;0.60;0.60;;;22.40;64.30;;;;;;6254757;28;20025;-69
2023/08/20 09:36:09;;;;;;;0.40;0.40;;;22.40;64.30;;;;;;6271513;28;20493;-69
2023/08/20 09:39:09;;;;;;;0.52;0.52;;;22.40;64.30;;;;;;6252170;28;20045;-69
2023/08/20 09:42:11;;;;;;;0.40;0.40;;;22.40;64.40;;;;;;6247536;28;20029;-69
2023/08/20 09:45:12;;;;;;;0.60;0.60;;;22.40;64.40;;;;;;6270101;28;20040;-70
2023/08/20 09:48:20;;;;;;;0.55;0.55;;;22.40;64.30;;;;;;6262320;28;20021;-69
2023/08/20 09:51:26;;;;;;;0.70;0.60;;;22.40;64.40;;;;;;6244450;28;20378;-69
2023/08/20 09:55:07;;;;;;;0.63;0.63;;;22.40;64.30;;;;;;6265025;28;20013;-69
2023/08/20 09:58:08;;;;;;;0.47;0.47;;;22.40;64.30;;;;;;6263132;28;20468;-69
2023/08/20 10:01:09;;;;;;;0.52;0.52;;;22.40;64.30;;;;;;6245338;28;20065;-70
2023/08/20 10:04:10;;;;;;;0.50;0.50;;;22.40;64.30;;;;;;6260804;28;20025;-69
2023/08/20 10:07:12;;;;;;;0.63;0.63;;;22.40;65.20;;;;;;6270491;28;20379;-69
2023/08/20 10:10:13;;;;;;;0.77;0.70;;;22.40;64.30;;;;;;6246612;28;20053;-69
2023/08/20 10:13:15;;;;;;;0.50;0.50;;;22.40;64.30;;;;;;6251940;28;20032;-68
2023/08/20 10:16:20;;;;;;;0.50;0.50;;;22.40;64.40;;;;;;6269899;28;20556;-68
2023/08/20 10:19:23;;;;;;;0.50;0.50;;;22.30;64.30;;;;;;6255486;28;20483;-69
2023/08/20 10:22:35;;;;;;;0.50;0.50;;;22.40;64.40;;;;;;6245146;28;20029;-69
2023/08/20 10:25:44;;;;;;;0.50;0.50;;;22.40;64.30;;;;;;6269741;28;20194;-69
2023/08/20 10:28:44;;;;;;;0.50;0.50;;;22.40;64.30;;;;;;6261512;28;20035;-69
2023/08/20 10:31:48;;;;;;;0.70;0.70;;;22.40;64.40;;;;;;6245153;28;20034;-70
2023/08/20 10:34:52;;;;;;;0.60;0.60;;;22.40;64.30;;;;;;6261205;28;20028;-69
2023/08/20 10:38:06;;;;;;;0.70;0.60;;;22.40;64.40;;;;;;6269333;28;20120;-69
2023/08/20 10:41:10;;;;;;;0.50;0.50;;;22.40;64.30;;;;;;6223920;28;20026;-69
2023/08/20 10:44:11;;;;;;;0.63;0.60;;;22.40;64.40;;;;;;6255063;28;20115;-69
2023/08/20 10:47:17;;;;;;;0.50;0.50;;;22.40;64.40;;;;;;6269159;28;20032;-69
2023/08/20 10:50:19;;;;;;;1.05;0.60;;;22.40;64.30;;;;;;6250723;28;20538;-69
2023/08/20 10:53:23;;;;;;;0.60;0.55;;;22.40;64.30;;;;;;6244942;28;20029;-69
2023/08/20 10:56:23;;;;;;;0.50;0.50;;;22.40;64.30;;;;;;6269017;28;20032;-69
2023/08/20 10:59:29;;;;;;;0.80;0.60;;;22.40;64.30;;;;;;6259282;28;20037;-69
2023/08/20 11:02:30;;;;;;;0.63;0.63;;;22.40;64.30;;;;;;6243756;28;20021;-69
2023/08/20 11:05:31;;;;;;;0.63;0.50;;;22.40;64.30;;;;;;6262025;28;20031;-69
2023/08/20 11:08:32;;;;;;;0.60;0.60;;;22.40;64.30;;;;;;6267636;28;20495;-69
2023/08/20 11:11:33;;;;;;;0.50;0.50;;;22.40;64.30;;;;;;6244436;28;20030;-69
2023/08/20 11:14:35;;;;;;;0.55;0.55;;;22.40;64.30;;;;;;6252586;28;20024;-69
2023/08/20 11:17:47;;;;;;;0.77;0.77;;;22.40;64.30;;;;;;6268551;28;20503;-69
2023/08/20 11:20:48;;;;;;;0.60;0.60;;;22.40;64.40;;;;;;6250441;28;20033;-69
2023/08/20 11:23:48;;;;;;;0.63;0.63;;;22.40;64.30;;;;;;6244592;28;20075;-69
2023/08/20 11:26:49;;;;;;;0.70;0.70;;;22.40;64.30;;;;;;6268492;28;20029;-69
2023/08/20 11:29:49;;;;;;;0.50;0.50;;;22.40;64.40;;;;;;6259371;28;20025;-69
2023/08/20 11:32:52;;;;;;;0.50;0.50;;;22.40;64.30;;;;;;6243470;28;20029;-69
2023/08/20 11:35:54;;;;;;;0.73;0.65;;;22.40;64.30;;;;;;6260436;28;20028;-69
2023/08/20 11:38:55;;;;;;;0.98;0.57;;;22.40;64.30;;;;;;6267794;28;20387;-69
2023/08/20 11:41:56;;;;;;;0.70;0.65;;;22.40;64.30;;;;;;6228930;28;20069;-69
2023/08/20 11:44:58;;;;;;;0.57;0.50;;;22.40;64.30;;;;;;6251471;28;20340;-69
2023/08/20 11:47:59;;;;;;;0.85;0.75;;;22.40;64.40;;;;;;6267776;28;20029;-69
2023/08/20 11:51:00;;;;;;;0.40;0.40;;;22.40;64.30;;;;;;6252167;28;20034;-69
2023/08/20 11:54:00;;;;;;;0.82;0.60;;;22.40;64.30;;;;;;6242972;28;20848;-69
2023/08/20 11:57:05;;;;;;;0.77;0.75;;;22.40;64.30;;;;;;6266280;28;20087;-69
2023/08/20 12:00:12;;;;;;;0.82;0.63;;;22.40;64.30;;;;;;6260669;28;20127;-69
2023/08/20 12:03:13;;;;;;;0.60;0.60;;;22.40;64.30;;;;;;6242787;28;20480;-69
2023/08/20 12:06:22;;;;;;;0.47;0.47;;;22.40;64.30;;;;;;6258540;28;20031;-69
2023/08/20 12:09:23;;;;;;;0.80;0.70;;;22.40;64.30;;;;;;6267477;28;20059;-69
2023/08/20 12:12:24;;;;;;;0.55;0.50;;;22.40;64.30;;;;;;6242770;28;20420;-69
2023/08/20 12:15:25;;;;;;;0.82;0.57;;;22.40;64.30;;;;;;6249345;28;20044;-69
2023/08/20 12:18:26;;;;;;;0.60;0.50;;;22.40;64.30;;;;;;6267608;28;20622;-69
2023/08/20 12:21:26;;;;;;;0.55;0.50;;;22.40;64.30;;;;;;6251756;28;20043;-69
2023/08/20 12:24:27;;;;;;;0.70;0.60;;;22.40;64.40;;;;;;6242570;28;20017;-68
2023/08/20 12:27:28;;;;;;;0.50;0.50;;;22.40;64.40;;;;;;6265552;28;20029;-69
2023/08/20 12:30:28;;;;;;;0.80;0.75;;;22.40;64.40;;;;;;6261738;28;20038;-69
2023/08/20 12:33:29;;;;;;;0.50;0.50;;;22.40;64.30;;;;;;6242309;28;20498;-69
2023/08/20 12:36:30;;;;;;;0.90;0.80;;;22.40;64.40;;;;;;6256710;28;20210;-69
2023/08/20 12:39:31;;;;;;;0.60;0.60;;;22.40;64.40;;;;;;6267133;28;20013;-69
2023/08/20 12:42:31;;;;;;;0.50;0.50;;;22.40;64.30;;;;;;6245383;28;20531;-69
2023/08/20 12:45:32;;;;;;;0.70;0.60;;;22.40;64.30;;;;;;6247036;28;20017;-69
2023/08/20 12:48:32;;;;;;;0.70;0.70;;;22.40;64.30;;;;;;6266932;28;20028;-69
2023/08/20 12:51:33;;;;;;;0.75;0.70;;;22.40;64.40;;;;;;6254493;28;20021;-69
2023/08/20 12:54:33;;;;;;;0.60;0.60;;;22.40;64.30;;;;;;6242512;28;20286;-69
2023/08/20 12:57:38;;;;;;;0.52;0.52;;;22.40;64.40;;;;;;6261969;28;20036;-69
2023/08/20 13:00:39;;;;;;;0.50;0.50;;;22.40;64.40;;;;;;6263771;28;20034;-69
2023/08/20 13:03:39;;;;;;;0.50;0.50;;;22.40;64.40;;;;;;6242024;28;20038;-69
2023/08/20 13:06:41;;;;;;;0.55;0.50;;;22.40;64.40;;;;;;6253235;28;20032;-69
2023/08/20 13:09:42;;;;;;;0.75;0.75;;;22.40;64.40;;;;;;6267373;28;20097;-69
2023/08/20 13:12:49;;;;;;;0.47;0.40;;;22.40;64.30;;;;;;6247902;28;20553;-69
2023/08/20 13:15:51;;;;;;;0.57;0.57;;;22.40;64.40;;;;;;6244909;28;20369;-69
2023/08/20 13:18:52;;;;;;;0.50;0.50;;;22.40;64.40;;;;;;6266645;28;20052;-69
2023/08/20 13:21:53;;;;;;;0.93;0.60;;;22.40;64.40;;;;;;6255715;28;20034;-69
2023/08/20 13:24:53;;;;;;;0.40;0.40;;;22.40;64.40;;;;;;6242244;28;20129;-70
2023/08/20 13:27:54;;;;;;;0.75;0.60;;;22.40;64.40;;;;;;6264467;28;20036;-69
2023/08/20 13:30:55;;;;;;;0.50;0.50;;;22.40;64.40;;;;;;6269901;28;20426;-70
2023/08/20 13:33:55;;;;;;;0.75;0.60;;;22.40;64.40;;;;;;6246330;28;20064;-69
2023/08/20 13:36:56;;;;;;;0.30;0.30;;;22.40;64.40;;;;;;6255116;28;20025;-69
2023/08/20 13:39:58;;;;;;;0.60;0.60;;;22.40;64.40;;;;;;6270686;28;20028;-69
2023/08/20 13:42:58;;;;;;;0.50;0.50;;;22.40;64.30;;;;;;6268173;28;20075;-69
2023/08/20 13:45:59;;;;;;;0.57;0.57;;;22.40;64.40;;;;;;6270739;28;20511;-69
2023/08/20 13:49:00;;;;;;;0.50;0.50;;;22.40;64.40;;;;;;6245934;28;20033;-70
2023/08/20 13:52:00;;;;;;;0.47;0.47;;;22.40;64.40;;;;;;6253558;28;20021;-70
2023/08/20 13:55:01;;;;;;;0.70;0.60;;;22.40;64.40;;;;;;6267878;28;20541;-69
2023/08/20 13:58:01;;;;;;;0.50;0.40;;;22.40;64.40;;;;;;6255377;28;20025;-69
2023/08/20 14:01:02;;;;;;;0.50;0.43;;;22.40;64.40;;;;;;6245361;28;20464;-69
2023/08/20 14:04:03;;;;;;;0.45;0.45;;;22.40;64.40;;;;;;6268664;28;20472;-69
2023/08/20 14:07:04;;;;;;;0.50;0.50;;;22.40;64.40;;;;;;6264236;28;20503;-69
2023/08/20 14:10:05;;;;;;;0.77;0.60;;;22.40;64.40;;;;;;6245417;28;20079;-69
2023/08/20 14:13:06;;;;;;;0.40;0.40;;;22.40;64.40;;;;;;6259111;28;20036;-69
2023/08/20 14:16:07;;;;;;;0.50;0.50;;;22.40;64.40;;;;;;6269946;28;20029;-70
2023/08/20 14:19:07;;;;;;;0.50;0.50;;;22.40;64.40;;;;;;6248182;28;20031;-69
2023/08/20 14:22:08;;;;;;;0.40;0.40;;;22.40;64.40;;;;;;6249824;28;20028;-69
2023/08/20 14:25:09;;;;;;;0.55;0.50;;;22.40;64.40;;;;;;6257476;28;20079;-69
2023/08/20 14:28:10;;;;;;;1.17;0.40;;;22.40;64.40;;;;;;6244784;28;20064;-69
2023/08/20 14:31:10;;;;;;;0.70;0.50;;;22.40;64.40;;;;;;6244940;28;20030;-69
2023/08/20 14:34:11;;;;;;;0.50;0.50;;;22.40;64.40;;;;;;6264383;28;20036;-69
2023/08/20 14:37:13;;;;;;;0.55;0.55;;;22.40;64.40;;;;;;6266128;28;20101;-69
2023/08/20 14:40:13;;;;;;;0.50;0.50;;;22.40;64.40;;;;;;6244606;28;20128;-69
2023/08/20 14:43:14;;;;;;;0.40;0.40;;;22.40;64.40;;;;;;6255064;28;20027;-69
2023/08/20 14:46:15;;;;;;;0.60;0.60;;;22.40;64.40;;;;;;6269522;28;20044;-69
2023/08/20 14:49:17;;;;;;;0.50;0.43;;;22.40;64.40;;;;;;6250600;28;20056;-70
2023/08/20 14:52:18;;;;;;;0.40;0.40;;;22.40;64.40;;;;;;6245967;28;20025;-68
2023/08/20 14:55:19;;;;;;;0.40;0.40;;;22.40;64.40;;;;;;6182609;28;20057;-69
2023/08/20 14:58:20;;;;;;;0.40;0.40;;;22.40;64.40;;;;;;6193441;28;20030;-69
2023/08/20 15:01:20;;;;;;;0.40;0.40;;;22.40;64.40;;;;;;6193405;28;20122;-69
2023/08/20 15:04:21;;;;;;;0.40;0.40;;;22.40;64.40;;;;;;6191936;28;20073;-69
2023/08/20 15:07:21;;;;;;;0.40;0.40;;;22.40;64.40;;;;;;6193414;28;20033;-69
2023/08/20 15:10:22;;;;;;;0.50;0.50;;;22.40;64.40;;;;;;6192418;28;20054;-69
2023/08/20 15:13:22;;;;;;;0.40;0.40;;;22.40;64.40;;;;;;6193217;28;20420;-69
2023/08/20 15:16:23;;;;;;;0.40;0.40;;;22.40;64.40;;;;;;6193120;28;20038;-69
2023/08/20 15:19:24;;;;;;;0.45;0.40;;;22.40;64.40;;;;;;6193030;28;20122;-69
2023/08/20 15:22:24;;;;;;;0.47;0.47;;;22.40;64.40;;;;;;6192856;28;20373;-69
2023/08/20 15:25:25;;;;;;;0.63;0.50;;;22.40;64.40;;;;;;6192021;28;20076;-70
2023/08/20 15:28:26;;;;;;;0.40;0.40;;;22.40;64.40;;;;;;6193336;28;20555;-69
2023/08/20 15:31:28;;;;;;;0.40;0.40;;;22.40;65.20;;;;;;6192623;28;20026;-70
2023/08/20 15:34:29;;;;;;;0.50;0.50;;;22.40;64.40;;;;;;6193068;28;20025;-69
2023/08/20 15:37:29;;;;;;;0.50;0.50;;;22.40;64.40;;;;;;6192076;28;20508;-69
2023/08/20 15:40:30;;;;;;;0.50;0.50;;;22.40;64.40;;;;;;6206706;28;20038;-68
2023/08/20 15:43:30;;;;;;;0.30;0.30;;;22.40;64.40;;;;;;6179571;28;20432;-69
2023/08/20 15:46:31;;;;;;;0.28;0.28;;;22.40;64.40;;;;;;6192340;28;20030;-69
2023/08/20 15:49:32;;;;;;;0.40;0.40;;;22.40;64.40;;;;;;6190890;28;20027;-69